首页
METAR-TAF:

METAR-TAF

机场 :

贾特拉帕蒂·希瓦吉国际机场

孟买, 印度

纬度: 19-07N, 经度: 072-51E, 海拔: 8米

当前天气观测

该预报发布于28分钟前的01:30 UTC
风速3节,风向多变
温度 23°C
湿度 78%
气压 1015 hPa
能見度: 4000
多云层高于2000英尺

METAR: VABB 230130Z VRB03KT 4000 HZ BKN020 23/19 Q1015 BECMG 3000 HZ

时间: 07:28 (01:58 UTC)

预报

该预报发布于2小时和58分钟前的23:00 UTC
预报有效从23日的 00点(UTC)到 23日的 09点(UTC)
风速3节,风向多变
能見度: 2000
霾, 烟
成为
从 23日的 04点(UTC)到 23日的 06点(UTC)
风速6节,风向东转东南
能見度: 3000
成为
从 23日的 08点(UTC)到 23日的 09点(UTC)
风速8节,风向西
能見度: 4000

TAF: VABB 222300Z 2300/2309 VRB03KT 2000 HZ FU NSC BECMG 2304/2306 12006KT 3000 FU BECMG 2308/2309 28008KT 4000 FU

超过4000个机场的气象观测和天气预报(METAR&TAF报告)。

可查询的气象台以黄色和红色小点在地图上表示。

将鼠标移到小点上方,可查看气象台名称。

然后点击查看天气观测和预报。

如需切换地图:点击带黑十字的绿色按钮放大地图;点击带横线的绿色按钮缩小地图;或者点击绿色箭头查看邻近地区的地图。


METAR-TAF: